createdAt,value
2016-05-21T00:00:14.248Z,8.82
2016-05-21T00:01:14.391Z,8.72
2016-05-21T00:02:14.394Z,8.78
2016-05-21T00:03:14.256Z,8.75
2016-05-21T00:04:14.399Z,8.74
2016-05-21T00:05:14.402Z,8.74
2016-05-21T00:06:14.232Z,8.68
2016-05-21T00:07:14.408Z,8.68
2016-05-21T00:08:14.394Z,8.68
2016-05-21T00:09:14.413Z,8.71
2016-05-21T00:10:14.415Z,8.69
2016-05-21T00:11:14.273Z,8.64
2016-05-21T00:12:14.449Z,8.61
2016-05-21T00:13:14.451Z,8.68
2016-05-21T00:14:14.313Z,8.63
2016-05-21T00:15:14.472Z,8.56
2016-05-21T00:16:14.483Z,8.52
2016-05-21T00:17:14.491Z,8.54
2016-05-21T00:18:14.500Z,8.52
2016-05-21T00:19:14.508Z,8.54
2016-05-21T00:20:14.501Z,8.53
2016-05-21T00:21:14.507Z,8.5
2016-05-21T00:22:14.528Z,8.53
2016-05-21T00:23:14.517Z,8.52
2016-05-21T00:24:14.523Z,8.56
2016-05-21T00:25:14.371Z,8.49
2016-05-21T00:26:15.062Z,8.56
2016-05-21T00:27:14.363Z,8.38
2016-05-21T00:28:14.538Z,8.42
2016-05-21T00:29:14.541Z,8.46
2016-05-21T00:30:14.528Z,8.45
2016-05-21T00:31:14.532Z,8.41
2016-05-21T00:32:14.535Z,8.41
2016-05-21T00:33:14.365Z,8.31
2016-05-21T00:34:14.368Z,8.32
2016-05-21T00:35:14.528Z,8.38
2016-05-21T00:36:14.530Z,8.45
2016-05-21T00:37:14.533Z,8.49
2016-05-21T00:38:14.520Z,8.45
2016-05-21T00:39:14.522Z,8.44
2016-05-21T00:40:14.525Z,8.52
2016-05-21T00:41:14.387Z,8.46
2016-05-21T00:42:14.374Z,8.44
2016-05-21T00:43:14.533Z,8.39
2016-05-21T00:44:14.535Z,8.49
2016-05-21T00:45:14.367Z,8.49
2016-05-21T00:46:14.542Z,8.5
2016-05-21T00:47:14.372Z,8.45
2016-05-21T00:48:14.516Z,8.49
2016-05-21T00:49:14.377Z,8.41
2016-05-21T00:50:14.536Z,8.49
2016-05-21T00:51:14.524Z,8.49
2016-05-21T00:52:14.385Z,8.45
2016-05-21T00:53:14.529Z,8.44
2016-05-21T00:54:14.359Z,8.39
2016-05-21T00:55:14.549Z,8.38
2016-05-21T00:56:14.396Z,8.28
2016-05-21T00:57:14.523Z,8.32
2016-05-21T00:58:14.370Z,8.27
2016-05-21T00:59:14.529Z,8.36
2016-05-21T01:00:14.516Z,8.31
2016-05-21T01:01:14.519Z,8.35
2016-05-21T01:02:14.521Z,8.35
2016-05-21T01:03:14.524Z,8.26
2016-05-21T01:04:14.527Z,8.28
2016-05-21T01:05:14.373Z,8.24
2016-05-21T01:06:14.517Z,8.17
2016-05-21T01:07:14.520Z,8.16
2016-05-21T01:08:14.522Z,8.24
2016-05-21T01:09:14.525Z,8.14
2016-05-21T01:10:14.527Z,8.11
2016-05-21T01:11:14.514Z,8.08
2016-05-21T01:12:14.517Z,8.08
2016-05-21T01:13:14.519Z,8.09
2016-05-21T01:14:14.367Z,8.06
2016-05-21T01:15:14.510Z,7.98
2016-05-21T01:16:14.528Z,8.16
2016-05-21T01:17:14.531Z,8.02
2016-05-21T01:18:14.518Z,7.96
2016-05-21T01:19:14.536Z,8.06
2016-05-21T01:20:14.383Z,7.99
2016-05-21T01:21:14.369Z,7.96
2016-05-21T01:22:14.529Z,8.05
2016-05-21T01:23:14.516Z,8.02
2016-05-21T01:24:14.518Z,8.01
2016-05-21T01:25:14.521Z,7.83
2016-05-21T01:26:14.523Z,7.8
2016-05-21T01:27:14.510Z,7.81
2016-05-21T01:28:14.513Z,7.83
2016-05-21T01:29:14.360Z,7.81
2016-05-21T01:30:14.519Z,7.84
2016-05-21T01:31:14.521Z,7.77
2016-05-21T01:32:14.540Z,7.83
2016-05-21T01:33:14.512Z,7.85
2016-05-21T01:34:14.514Z,7.75
2016-05-21T01:35:14.548Z,7.77
2016-05-21T01:36:14.363Z,7.75
2016-05-21T01:37:14.522Z,7.72
2016-05-21T01:38:14.509Z,7.67
2016-05-21T01:39:14.356Z,7.75
2016-05-21T01:40:14.530Z,7.69
2016-05-21T01:41:14.533Z,7.66
2016-05-21T01:42:14.520Z,7.7
2016-05-21T01:43:14.523Z,7.67
2016-05-21T01:44:14.370Z,7.66
2016-05-21T01:45:14.512Z,7.64
2016-05-21T01:46:14.359Z,7.62
2016-05-21T01:47:14.533Z,7.58
2016-05-21T01:48:14.520Z,7.56
2016-05-21T01:49:14.508Z,7.58
2016-05-21T01:50:14.525Z,7.66
2016-05-21T01:51:14.513Z,7.56
2016-05-21T01:52:14.515Z,7.59
2016-05-21T01:53:14.518Z,7.5
2016-05-21T01:54:14.521Z,7.51
2016-05-21T01:55:14.508Z,7.55
2016-05-21T01:56:14.527Z,7.58
2016-05-21T01:57:14.513Z,7.51
2016-05-21T01:58:14.516Z,7.58
2016-05-21T01:59:14.519Z,7.47
2016-05-21T02:00:14.506Z,7.43
2016-05-21T02:01:14.368Z,7.46
2016-05-21T02:02:14.511Z,7.47
2016-05-21T02:03:14.514Z,7.47
2016-05-21T02:04:14.501Z,7.46
2016-05-21T02:05:14.503Z,7.48
2016-05-21T02:06:14.506Z,7.47
2016-05-21T02:07:14.509Z,7.53
2016-05-21T02:08:14.527Z,7.44
2016-05-21T02:09:14.530Z,7.43
2016-05-21T02:10:14.517Z,7.39
2016-05-21T02:11:14.817Z,7.32
2016-05-21T02:12:14.507Z,7.36
2016-05-21T02:13:14.509Z,7.36
2016-05-21T02:14:14.512Z,7.39
2016-05-21T02:15:14.500Z,7.36
2016-05-21T02:16:14.345Z,7.4
2016-05-21T02:17:14.348Z,7.41
2016-05-21T02:18:14.507Z,7.26
2016-05-21T02:19:14.494Z,7.31
2016-05-21T02:20:14.513Z,7.29
2016-05-21T02:21:14.375Z,7.29
2016-05-21T02:22:14.518Z,7.26
2016-05-21T02:23:14.505Z,7.31
2016-05-21T02:24:14.336Z,7.29
2016-05-21T02:25:14.511Z,7.26
2016-05-21T02:26:14.529Z,7.28
2016-05-21T02:27:14.499Z,7.32
2016-05-21T02:28:14.503Z,7.32
2016-05-21T02:29:14.505Z,7.23
2016-05-21T02:30:14.508Z,7.23
2016-05-21T02:31:14.355Z,7.22
2016-05-21T02:32:14.357Z,7.28
2016-05-21T02:33:14.516Z,7.15
2016-05-21T02:34:14.347Z,7.22
2016-05-21T02:35:14.507Z,7.29
2016-05-21T02:36:14.352Z,7.26
2016-05-21T02:37:14.527Z,7.21
2016-05-21T02:38:14.499Z,7.15
2016-05-21T02:39:14.501Z,7.19
2016-05-21T02:40:14.332Z,7.19
2016-05-21T02:41:15.209Z,7.15
2016-05-21T02:42:14.509Z,7.1
2016-05-21T02:43:14.497Z,7.15
2016-05-21T02:44:14.514Z,7.05
2016-05-21T02:45:14.502Z,7.08
2016-05-21T02:46:14.488Z,7.07
2016-05-21T02:47:14.491Z,7.05
2016-05-21T02:48:14.510Z,7.08
2016-05-21T02:49:14.497Z,7.08
2016-05-21T02:50:14.500Z,7.08
2016-05-21T02:51:14.518Z,7.08
2016-05-21T02:52:14.521Z,7.07
2016-05-21T02:53:14.352Z,7.08
2016-05-21T02:54:14.541Z,7.01
2016-05-21T02:55:15.388Z,6.93
2016-05-21T02:56:14.578Z,6.95
2016-05-21T02:57:14.502Z,7.01
2016-05-21T02:58:14.505Z,6.95
2016-05-21T02:59:14.508Z,6.95
2016-05-21T03:00:14.511Z,6.87
2016-05-21T03:01:14.498Z,6.96
2016-05-21T03:02:14.500Z,6.93
2016-05-21T03:03:14.347Z,6.86
2016-05-21T03:04:14.490Z,6.95
2016-05-21T03:05:14.493Z,6.96
2016-05-21T03:06:14.495Z,6.92
2016-05-21T03:07:14.482Z,6.87
2016-05-21T03:08:14.485Z,6.9
2016-05-21T03:09:14.488Z,6.87
2016-05-21T03:10:14.490Z,6.89
2016-05-21T03:11:14.806Z,6.87
2016-05-21T03:12:14.496Z,6.95
2016-05-21T03:13:14.342Z,6.9
2016-05-21T03:14:14.501Z,6.8
2016-05-21T03:15:14.489Z,6.77
2016-05-21T03:16:14.506Z,6.86
2016-05-21T03:17:14.525Z,6.78
2016-05-21T03:18:14.497Z,6.89
2016-05-21T03:19:14.327Z,6.9
2016-05-21T03:20:14.331Z,6.85
2016-05-21T03:21:14.489Z,6.85
2016-05-21T03:22:14.477Z,6.87
2016-05-21T03:23:14.480Z,6.93
2016-05-21T03:24:14.497Z,6.96
2016-05-21T03:25:14.500Z,6.87
2016-05-21T03:26:14.737Z,6.92
2016-05-21T03:27:14.491Z,6.92
2016-05-21T03:28:14.493Z,6.89
2016-05-21T03:29:14.479Z,6.97
2016-05-21T03:30:14.482Z,6.92
2016-05-21T03:31:14.501Z,6.86
2016-05-21T03:32:14.518Z,6.87
2016-05-21T03:33:14.490Z,6.9
2016-05-21T03:34:14.493Z,6.86
2016-05-21T03:35:14.480Z,6.93
2016-05-21T03:36:14.482Z,6.83
2016-05-21T03:37:14.329Z,6.92
2016-05-21T03:38:14.332Z,6.93
2016-05-21T03:39:14.160Z,6.87
2016-05-21T03:40:14.478Z,6.92
2016-05-21T03:41:14.353Z,6.87
2016-05-21T03:42:14.483Z,6.92
2016-05-21T03:43:14.467Z,6.92
2016-05-21T03:44:14.470Z,6.95
2016-05-21T03:45:14.489Z,6.92
2016-05-21T03:46:14.475Z,6.95
2016-05-21T03:47:14.478Z,6.97
2016-05-21T03:48:14.481Z,6.96
2016-05-21T03:49:14.484Z,6.93
2016-05-21T03:50:14.486Z,7
2016-05-21T03:51:14.317Z,7.07
2016-05-21T03:52:14.476Z,7.1
2016-05-21T03:53:14.322Z,7.15
2016-05-21T03:54:14.325Z,7.15
2016-05-21T03:55:14.484Z,7.18
2016-05-21T03:56:14.346Z,7.29
2016-05-21T03:57:14.161Z,7.33
2016-05-21T03:58:14.477Z,7.39
2016-05-21T03:59:14.324Z,7.41
2016-05-21T04:00:14.310Z,7.51
2016-05-21T04:01:14.469Z,7.67
2016-05-21T04:02:14.471Z,7.81
2016-05-21T04:03:14.474Z,7.95
2016-05-21T04:04:14.477Z,8.08
2016-05-21T04:05:14.480Z,8.34
2016-05-21T04:06:14.310Z,8.6
2016-05-21T04:07:14.470Z,8.89
2016-05-21T04:08:14.473Z,9.02
2016-05-21T04:09:14.318Z,9.19
2016-05-21T04:10:14.462Z,9.34
2016-05-21T04:11:14.481Z,9.55
2016-05-21T04:12:14.467Z,9.67
2016-05-21T04:13:14.470Z,9.76
2016-05-21T04:14:14.473Z,9.87
2016-05-21T04:15:14.476Z,10.03
2016-05-21T04:16:14.479Z,10.06
2016-05-21T04:17:14.465Z,10.12
2016-05-21T04:18:14.468Z,10.31
2016-05-21T04:19:14.470Z,10.34
2016-05-21T04:20:14.473Z,10.41
2016-05-21T04:21:14.476Z,10.61
2016-05-21T04:22:14.479Z,10.61
2016-05-21T04:23:14.466Z,10.77
2016-05-21T04:24:14.469Z,10.94
2016-05-21T04:25:14.471Z,11.05
2016-05-21T04:26:14.662Z,11.18
2016-05-21T04:27:14.304Z,11.35
2016-05-21T04:28:14.307Z,11.51
2016-05-21T04:29:14.154Z,11.6
2016-05-21T04:30:14.469Z,11.78
2016-05-21T04:31:14.160Z,11.95
2016-05-21T04:32:14.458Z,11.99
2016-05-21T04:33:14.477Z,12.14
2016-05-21T04:34:14.463Z,12.15
2016-05-21T04:35:14.466Z,12.2
2016-05-21T04:36:14.313Z,12.35
2016-05-21T04:37:14.487Z,12.48
2016-05-21T04:38:14.475Z,12.51
2016-05-21T04:39:14.477Z,12.55
2016-05-21T04:40:14.324Z,12.53
2016-05-21T04:41:14.733Z,12.69
2016-05-21T04:42:14.485Z,12.7
2016-05-21T04:43:14.488Z,12.78
2016-05-21T04:44:14.475Z,12.81
2016-05-21T04:45:14.322Z,12.98
2016-05-21T04:46:14.481Z,13.06
2016-05-21T04:47:14.468Z,13.28
2016-05-21T04:48:14.314Z,13.26
2016-05-21T04:49:14.473Z,13.37
2016-05-21T04:50:14.336Z,13.49
2016-05-21T04:51:14.479Z,13.61
2016-05-21T04:52:14.481Z,13.68
2016-05-21T04:53:14.484Z,13.78
2016-05-21T04:54:14.471Z,13.79
2016-05-21T04:55:14.505Z,13.85
2016-05-21T04:56:15.445Z,13.85
2016-05-21T04:57:14.495Z,14
2016-05-21T04:58:14.482Z,14.03
2016-05-21T04:59:14.484Z,14.15
2016-05-21T05:00:14.488Z,14.33
2016-05-21T05:01:14.490Z,14.41
2016-05-21T05:02:14.493Z,14.59
2016-05-21T05:03:14.495Z,14.89
2016-05-21T05:04:14.498Z,15.08
2016-05-21T05:05:14.501Z,15.44
2016-05-21T05:06:14.504Z,15.67
2016-05-21T05:07:14.349Z,15.92
2016-05-21T05:08:14.493Z,16.28
2016-05-21T05:09:14.495Z,16.55
2016-05-21T05:10:14.343Z,16.62
2016-05-21T05:11:14.376Z,16.87
2016-05-21T05:12:14.504Z,17.07
2016-05-21T05:13:14.507Z,17.17
2016-05-21T05:14:14.509Z,17.23
2016-05-21T05:15:14.356Z,17.39
2016-05-21T05:16:14.515Z,17.75
2016-05-21T05:17:14.502Z,17.98
2016-05-21T05:18:14.520Z,18.28
2016-05-21T05:19:14.523Z,18.49
2016-05-21T05:20:14.369Z,18.82
2016-05-21T05:21:14.372Z,19.29
2016-05-21T05:22:14.531Z,19.72
2016-05-21T05:23:14.517Z,20.19
2016-05-21T05:24:14.520Z,20.68
2016-05-21T05:25:14.570Z,21.1
2016-05-21T05:26:14.541Z,21.63
2016-05-21T05:27:14.528Z,22.07
2016-05-21T05:28:14.547Z,22.52
2016-05-21T05:29:14.549Z,22.83
2016-05-21T05:30:14.537Z,23.07
2016-05-21T05:31:14.539Z,23.32
2016-05-21T05:32:14.541Z,23.52
2016-05-21T05:33:14.247Z,23.84
2016-05-21T05:34:14.563Z,24.16
2016-05-21T05:35:14.550Z,24.58
2016-05-21T05:36:14.568Z,24.86
2016-05-21T05:37:14.556Z,25.14
2016-05-21T05:38:14.401Z,25.43
2016-05-21T05:39:14.560Z,25.81
2016-05-21T05:40:14.579Z,26.22
2016-05-21T05:41:14.582Z,26.53
2016-05-21T05:42:14.428Z,26.92
2016-05-21T05:43:14.274Z,27.33
2016-05-21T05:44:14.590Z,27.57
2016-05-21T05:45:14.593Z,27.75
2016-05-21T05:46:14.595Z,27.91
2016-05-21T05:47:14.598Z,28.3
2016-05-21T05:48:14.600Z,28.55
2016-05-21T05:49:14.634Z,28.8
2016-05-21T05:50:14.606Z,29.1
2016-05-21T05:51:14.625Z,29.22
2016-05-21T05:52:14.627Z,29.25
2016-05-21T05:53:14.645Z,29.28
2016-05-21T05:54:14.617Z,29.58
2016-05-21T05:55:14.478Z,29.95
2016-05-21T05:56:14.638Z,30.1
2016-05-21T05:57:14.641Z,30.55
2016-05-21T05:58:14.659Z,30.91
2016-05-21T05:59:14.661Z,31.37
2016-05-21T06:00:14.492Z,31.64
2016-05-21T06:01:14.510Z,32.05
2016-05-21T06:02:14.669Z,32.34
2016-05-21T06:03:14.672Z,32.83
2016-05-21T06:04:14.691Z,33.03
2016-05-21T06:05:14.678Z,33.36
2016-05-21T06:06:14.680Z,33.76
2016-05-21T06:07:14.699Z,34.14
2016-05-21T06:08:14.701Z,34.33
2016-05-21T06:09:14.704Z,34.58
2016-05-21T06:10:14.551Z,34.88
2016-05-21T06:11:15.116Z,35.13
2016-05-21T06:12:14.727Z,35.18
2016-05-21T06:13:14.730Z,35.27
2016-05-21T06:14:14.733Z,35.5
2016-05-21T06:15:14.751Z,35.74
2016-05-21T06:16:14.754Z,35.87
2016-05-21T06:17:14.757Z,36.06
2016-05-21T06:18:14.759Z,35.93
2016-05-21T06:19:14.762Z,35.86
2016-05-21T06:20:14.781Z,36.16
2016-05-21T06:21:14.470Z,36.22
2016-05-21T06:22:14.629Z,36.24
2016-05-21T06:23:14.789Z,36.25
2016-05-21T06:24:14.792Z,36.39
2016-05-21T06:25:14.809Z,36.55
2016-05-21T06:26:14.812Z,36.75
2016-05-21T06:27:14.659Z,36.92
2016-05-21T06:28:14.833Z,37.18
2016-05-21T06:29:14.836Z,37.64
2016-05-21T06:30:14.839Z,38.09
2016-05-21T06:31:14.857Z,38.44
2016-05-21T06:32:14.875Z,38.95
2016-05-21T06:33:14.705Z,39.39
2016-05-21T06:34:14.880Z,39.86
2016-05-21T06:35:14.571Z,40.23
2016-05-21T06:36:14.886Z,40.34
2016-05-21T06:37:14.889Z,40.54
2016-05-21T06:38:14.907Z,40.4
2016-05-21T06:39:14.754Z,40.16
2016-05-21T06:40:14.913Z,40.12
2016-05-21T06:41:15.416Z,39.95
2016-05-21T06:42:14.776Z,39.76
2016-05-21T06:43:14.936Z,39.46
2016-05-21T06:44:14.938Z,39.07
2016-05-21T06:45:14.957Z,38.84
2016-05-21T06:46:14.803Z,38.95
2016-05-21T06:47:14.821Z,39.23
2016-05-21T06:48:14.996Z,39.37
2016-05-21T06:49:14.999Z,39.25
2016-05-21T06:50:15.018Z,39.34
2016-05-21T06:51:15.020Z,39.7
2016-05-21T06:52:15.023Z,40.13
2016-05-21T06:53:15.025Z,40.78
2016-05-21T06:54:15.028Z,41.03
2016-05-21T06:55:15.031Z,41.15
2016-05-21T06:56:15.096Z,41.39
2016-05-21T06:57:14.895Z,41.18
2016-05-21T06:58:15.070Z,40.88
2016-05-21T06:59:15.073Z,40.88
2016-05-21T07:00:15.091Z,40.67
2016-05-21T07:01:15.094Z,40.8
2016-05-21T07:02:15.097Z,40.7
2016-05-21T07:03:15.114Z,40.7
2016-05-21T07:04:15.133Z,40.51
2016-05-21T07:05:14.980Z,40.17
2016-05-21T07:06:15.139Z,39.83
2016-05-21T07:07:15.000Z,40.04
2016-05-21T07:08:15.160Z,40.16
2016-05-21T07:09:15.178Z,40.43
2016-05-21T07:10:15.180Z,40.77
2016-05-21T07:11:15.229Z,41.12
2016-05-21T07:12:15.202Z,41.71
2016-05-21T07:13:15.220Z,42.14
2016-05-21T07:14:15.223Z,42.36
2016-05-21T07:15:15.085Z,42.66
2016-05-21T07:16:15.087Z,43.09
2016-05-21T07:17:15.090Z,43.05
2016-05-21T07:18:15.265Z,43.05
2016-05-21T07:19:15.268Z,42.96
2016-05-21T07:20:15.285Z,43.02
2016-05-21T07:21:15.304Z,43.11
2016-05-21T07:22:15.307Z,43.03
2016-05-21T07:23:15.309Z,42.9
2016-05-21T07:24:15.171Z,42.49
2016-05-21T07:25:15.330Z,42.52
2016-05-21T07:26:15.537Z,42.61
2016-05-21T07:27:15.367Z,42.51
2016-05-21T07:28:15.369Z,42.34
2016-05-21T07:29:15.373Z,42.51
2016-05-21T07:30:15.391Z,42.43
2016-05-21T07:31:15.237Z,42.53
2016-05-21T07:32:15.240Z,42.87
2016-05-21T07:33:15.430Z,43.03
2016-05-21T07:34:15.417Z,42.73
2016-05-21T07:35:15.279Z,42.55
2016-05-21T07:36:15.297Z,42.03
2016-05-21T07:37:15.456Z,41.3
2016-05-21T07:38:15.474Z,40.88
2016-05-21T07:39:15.321Z,40.57
2016-05-21T07:40:15.496Z,40.08
2016-05-21T07:41:15.342Z,39.6
2016-05-21T07:42:15.532Z,39.39
2016-05-21T07:43:15.519Z,39.32
2016-05-21T07:44:15.522Z,39.48
2016-05-21T07:45:15.540Z,39.42
2016-05-21T07:46:15.559Z,39.6
2016-05-21T07:47:15.562Z,39.85
2016-05-21T07:48:15.565Z,40.13
2016-05-21T07:49:15.598Z,40.39
2016-05-21T07:50:15.585Z,40.62
2016-05-21T07:51:15.604Z,40.73
2016-05-21T07:52:15.606Z,40.66
2016-05-21T07:53:15.608Z,40.62
2016-05-21T07:54:15.627Z,40.57
2016-05-21T07:55:15.645Z,40.36
2016-05-21T07:56:15.851Z,40
2016-05-21T07:57:15.667Z,39.67
2016-05-21T07:58:15.669Z,39.59
2016-05-21T07:59:15.672Z,39.75
2016-05-21T08:00:15.690Z,39.95
2016-05-21T08:01:15.693Z,40.17
2016-05-21T08:02:15.695Z,40.39
2016-05-21T08:03:15.714Z,40.67
2016-05-21T08:04:15.732Z,41.23
2016-05-21T08:05:15.750Z,41.57
2016-05-21T08:06:15.753Z,41.98
2016-05-21T08:07:15.616Z,42.37
2016-05-21T08:08:15.758Z,42.61
2016-05-21T08:09:15.761Z,42.84
2016-05-21T08:10:15.780Z,43
2016-05-21T08:11:15.485Z,42.94
2016-05-21T08:12:15.800Z,42.89
2016-05-21T08:13:15.803Z,42.65
2016-05-21T08:14:15.821Z,42.56
2016-05-21T08:15:15.841Z,42.2
2016-05-21T08:16:15.842Z,41.96
2016-05-21T08:17:15.846Z,41.86
2016-05-21T08:18:15.879Z,41.96
2016-05-21T08:19:15.866Z,42.06
2016-05-21T08:20:15.869Z,41.9
2016-05-21T08:21:15.871Z,41.64
2016-05-21T08:22:15.734Z,41.58
2016-05-21T08:23:15.893Z,41.46
2016-05-21T08:24:15.911Z,41.65
2016-05-21T08:25:15.773Z,41.99
2016-05-21T08:26:15.932Z,42.65
2016-05-21T08:27:16.075Z,43.54
2016-05-21T08:28:15.812Z,44.03
2016-05-21T08:29:15.956Z,44.73
2016-05-21T08:30:15.974Z,45.23
2016-05-21T08:31:15.976Z,45.54
2016-05-21T08:32:15.979Z,45.64
2016-05-21T08:33:15.997Z,45.77
2016-05-21T08:34:16.000Z,45.89
2016-05-21T08:35:16.003Z,46.02
2016-05-21T08:36:16.022Z,46.24
2016-05-21T08:37:16.040Z,46.7
2016-05-21T08:38:16.042Z,47.16
2016-05-21T08:39:15.889Z,47.22
2016-05-21T08:40:16.063Z,47.16
2016-05-21T08:41:16.300Z,46.94
2016-05-21T08:42:15.960Z,46.72
2016-05-21T08:43:15.946Z,46.81
2016-05-21T08:44:15.949Z,47.14
2016-05-21T08:45:15.952Z,47.61
2016-05-21T08:46:16.126Z,47.69
2016-05-21T08:47:16.129Z,47.85
2016-05-21T08:48:16.132Z,47.86
2016-05-21T08:49:16.150Z,47.66
2016-05-21T08:50:15.996Z,47.6
2016-05-21T08:51:16.015Z,47.54
2016-05-21T08:52:16.173Z,47.5
2016-05-21T08:53:16.020Z,47.62
2016-05-21T08:54:16.070Z,47.74
2016-05-21T08:55:16.198Z,47.89
2016-05-21T08:56:16.215Z,48.03
2016-05-21T08:57:16.218Z,48.15
2016-05-21T08:58:16.237Z,48.46
2016-05-21T08:59:16.240Z,48.46
2016-05-21T09:00:16.242Z,48.44
2016-05-21T09:01:16.261Z,47.98
2016-05-21T09:02:16.263Z,47.62
2016-05-21T09:03:16.282Z,46.75
2016-05-21T09:04:16.128Z,46.42
2016-05-21T09:05:16.146Z,46.25
2016-05-21T09:06:16.306Z,46.4
2016-05-21T09:07:16.308Z,46.51
2016-05-21T09:08:16.311Z,46.37
2016-05-21T09:09:16.314Z,46.21
2016-05-21T09:10:16.332Z,46.15
2016-05-21T09:11:16.444Z,46.12
2016-05-21T09:12:16.587Z,45.95
2016-05-21T09:13:16.355Z,46
2016-05-21T09:14:16.217Z,46.09
2016-05-21T09:15:16.220Z,46.28
2016-05-21T09:16:16.379Z,46.43
2016-05-21T09:17:16.225Z,46.65
2016-05-21T09:18:16.407Z,46.65
2016-05-21T09:19:16.431Z,46.69
2016-05-21T09:20:16.469Z,46.7
2016-05-21T09:21:16.493Z,46.25
2016-05-21T09:22:16.517Z,45.97
2016-05-21T09:23:16.526Z,45.88
2016-05-21T09:24:16.553Z,45.85
2016-05-21T09:25:16.564Z,45.88
2016-05-21T09:26:16.574Z,45.69
2016-05-21T09:27:17.178Z,45.54
2016-05-21T09:28:16.620Z,45.2
2016-05-21T09:29:16.610Z,44.96
2016-05-21T09:30:16.616Z,44.65
2016-05-21T09:31:16.480Z,43.91
2016-05-21T09:32:16.642Z,42.96
2016-05-21T09:33:16.646Z,41.96
2016-05-21T09:34:16.649Z,40.92
2016-05-21T09:35:16.654Z,39.85
2016-05-21T09:36:16.517Z,38.73
2016-05-21T09:37:16.661Z,37.75
2016-05-21T09:38:16.524Z,36.85
2016-05-21T09:39:16.699Z,36.06
2016-05-21T09:40:16.686Z,35.16
2016-05-21T09:41:17.095Z,34.5
2016-05-21T09:42:16.724Z,33.84
2016-05-21T09:43:16.555Z,33.22
2016-05-21T09:44:16.713Z,32.6
2016-05-21T09:45:16.715Z,31.98
2016-05-21T09:46:16.718Z,31.22
2016-05-21T09:47:16.721Z,30.67
2016-05-21T09:48:16.724Z,29.99
2016-05-21T09:49:16.743Z,29.42
2016-05-21T09:50:16.744Z,28.96
2016-05-21T09:51:16.748Z,28.57
2016-05-21T09:52:16.750Z,28.27
2016-05-21T09:53:16.784Z,27.95
2016-05-21T09:54:16.771Z,27.33
2016-05-21T09:55:16.774Z,26.89
2016-05-21T09:56:16.636Z,26.6
2016-05-21T09:57:16.685Z,26.42
2016-05-21T09:58:16.782Z,26.27
2016-05-21T09:59:16.785Z,26.23
2016-05-21T10:00:16.772Z,26.16
2016-05-21T10:01:16.790Z,26.18
2016-05-21T10:02:16.808Z,26.18
2016-05-21T10:03:16.796Z,26.16
2016-05-21T10:04:16.658Z,26.19
2016-05-21T10:05:16.816Z,26.22
2016-05-21T10:06:16.663Z,26.1
2016-05-21T10:07:16.822Z,26.08
2016-05-21T10:08:16.824Z,26.08
2016-05-21T10:09:16.843Z,26.07
2016-05-21T10:10:16.846Z,26.03
2016-05-21T10:11:16.692Z,25.89
2016-05-21T10:12:16.851Z,25.67
2016-05-21T10:13:16.698Z,25.59
2016-05-21T10:14:16.856Z,25.54
2016-05-21T10:15:16.859Z,25.54
2016-05-21T10:16:16.861Z,25.46
2016-05-21T10:17:16.865Z,25.52
2016-05-21T10:18:16.883Z,25.48
2016-05-21T10:19:16.869Z,25.48
2016-05-21T10:20:16.872Z,25.46
2016-05-21T10:21:16.892Z,25.43
2016-05-21T10:22:16.894Z,25.39
2016-05-21T10:23:16.897Z,25.34
2016-05-21T10:24:16.900Z,25.26
2016-05-21T10:25:16.902Z,25.3
2016-05-21T10:26:16.919Z,25.11
2016-05-21T10:27:16.922Z,25.09
2016-05-21T10:28:16.925Z,25.09
2016-05-21T10:29:16.913Z,25.07
2016-05-21T10:30:16.930Z,25.09
2016-05-21T10:31:16.933Z,25.09
2016-05-21T10:32:16.936Z,25.12
2016-05-21T10:33:16.783Z,25.11
2016-05-21T10:34:16.941Z,25.07
2016-05-21T10:35:16.944Z,25.14
2016-05-21T10:36:16.947Z,25.11
2016-05-21T10:37:16.810Z,25.12
2016-05-21T10:38:16.968Z,25.14
2016-05-21T10:39:16.971Z,25.09
2016-05-21T10:40:16.958Z,25.09
2016-05-21T10:41:17.148Z,25.07
2016-05-21T10:42:17.400Z,25.07
2016-05-21T10:43:16.981Z,25.04
2016-05-21T10:44:16.984Z,25
2016-05-21T10:45:17.018Z,25.07
2016-05-21T10:46:16.989Z,25.06
2016-05-21T10:47:16.992Z,25.03
2016-05-21T10:48:16.995Z,25.12
2016-05-21T10:49:16.998Z,25.12
2016-05-21T10:50:17.000Z,24.94
2016-05-21T10:51:17.018Z,24.96
2016-05-21T10:52:17.021Z,24.82
2016-05-21T10:53:17.009Z,24.75
2016-05-21T10:54:17.026Z,24.71
2016-05-21T10:55:17.014Z,24.63
2016-05-21T10:56:17.595Z,24.61
2016-05-21T10:57:17.051Z,24.55
2016-05-21T10:58:17.036Z,24.55
2016-05-21T10:59:17.040Z,24.65
2016-05-21T11:00:16.902Z,24.59
2016-05-21T11:01:17.045Z,24.69
2016-05-21T11:02:17.047Z,24.59
2016-05-21T11:03:17.051Z,24.74
2016-05-21T11:04:16.897Z,24.5
2016-05-21T11:05:17.055Z,24.51
2016-05-21T11:06:17.058Z,24.53
2016-05-21T11:07:17.061Z,24.55
2016-05-21T11:08:17.080Z,24.61
2016-05-21T11:09:17.066Z,24.63
2016-05-21T11:10:17.085Z,24.55
2016-05-21T11:11:17.088Z,24.59
2016-05-21T11:12:17.591Z,24.51
2016-05-21T11:13:17.093Z,24.48
2016-05-21T11:14:17.096Z,24.41
2016-05-21T11:15:16.943Z,24.5
2016-05-21T11:16:17.101Z,24.41
2016-05-21T11:17:17.104Z,24.48
2016-05-21T11:18:17.123Z,24.56
2016-05-21T11:19:17.109Z,24.51
2016-05-21T11:20:17.112Z,24.58
2016-05-21T11:21:16.959Z,24.62
2016-05-21T11:22:17.133Z,24.61
2016-05-21T11:23:16.964Z,24.55
2016-05-21T11:24:17.139Z,24.62
2016-05-21T11:25:17.141Z,24.65
2016-05-21T11:26:16.831Z,24.65
2016-05-21T11:27:17.880Z,24.63
2016-05-21T11:28:17.134Z,24.82
2016-05-21T11:29:17.152Z,24.65
2016-05-21T11:30:16.998Z,24.61
2016-05-21T11:31:17.157Z,24.61
2016-05-21T11:32:17.003Z,24.55
2016-05-21T11:33:17.178Z,24.44
2016-05-21T11:34:17.181Z,24.48
2016-05-21T11:35:17.168Z,24.53
2016-05-21T11:36:17.186Z,24.53
2016-05-21T11:37:17.174Z,24.53
2016-05-21T11:38:17.177Z,24.63
2016-05-21T11:39:17.179Z,24.59
2016-05-21T11:40:17.182Z,24.66
2016-05-21T11:41:17.184Z,24.74
2016-05-21T11:42:17.530Z,24.66
2016-05-21T11:43:17.204Z,24.69
2016-05-21T11:44:17.193Z,24.77
2016-05-21T11:45:17.210Z,24.69
2016-05-21T11:46:17.057Z,24.75
2016-05-21T11:47:17.216Z,24.77
2016-05-21T11:48:17.219Z,24.82
2016-05-21T11:49:17.221Z,24.77
2016-05-21T11:50:17.224Z,24.74
2016-05-21T11:51:17.226Z,24.78
2016-05-21T11:52:17.229Z,24.68
2016-05-21T11:53:17.232Z,24.62
2016-05-21T11:54:17.250Z,24.69
2016-05-21T11:55:17.237Z,24.61
2016-05-21T11:56:17.100Z,24.62
2016-05-21T11:57:17.259Z,24.53
2016-05-21T11:58:17.245Z,24.37
2016-05-21T11:59:17.264Z,24.28
2016-05-21T12:00:17.266Z,24.13
2016-05-21T12:01:17.269Z,24.1
2016-05-21T12:02:17.115Z,24.11
2016-05-21T12:03:17.275Z,24.24
2016-05-21T12:04:17.262Z,24.36
2016-05-21T12:05:17.280Z,24.47
2016-05-21T12:06:17.282Z,24.61
2016-05-21T12:07:17.269Z,24.58
2016-05-21T12:08:17.288Z,24.63
2016-05-21T12:09:17.291Z,24.66
2016-05-21T12:10:17.294Z,24.53
2016-05-21T12:11:17.296Z,24.69
2016-05-21T12:12:17.315Z,24.58
2016-05-21T12:13:17.301Z,24.65
2016-05-21T12:14:17.304Z,24.61
2016-05-21T12:15:17.307Z,24.59
2016-05-21T12:16:17.310Z,24.77
2016-05-21T12:17:17.328Z,24.78
2016-05-21T12:18:17.315Z,24.85
2016-05-21T12:19:17.334Z,24.79
2016-05-21T12:20:17.336Z,24.89
2016-05-21T12:21:17.323Z,24.97
2016-05-21T12:22:17.326Z,24.96
2016-05-21T12:23:17.328Z,24.96
2016-05-21T12:24:17.190Z,25.11
2016-05-21T12:25:17.334Z,25.16
2016-05-21T12:26:17.352Z,25.25
2016-05-21T12:27:17.386Z,25.24
2016-05-21T12:28:17.358Z,25.25
2016-05-21T12:29:17.360Z,25.36
2016-05-21T12:30:17.363Z,25.33
2016-05-21T12:31:17.366Z,25.37
2016-05-21T12:32:17.369Z,25.31
2016-05-21T12:33:17.372Z,25.41
2016-05-21T12:34:17.374Z,25.43
2016-05-21T12:35:17.220Z,25.49
2016-05-21T12:36:17.379Z,25.37
2016-05-21T12:37:17.382Z,25.44
2016-05-21T12:38:17.227Z,25.37
2016-05-21T12:39:17.403Z,25.34
2016-05-21T12:40:17.390Z,25.51
2016-05-21T12:41:17.407Z,25.52
2016-05-21T12:42:17.114Z,25.49
2016-05-21T12:43:17.413Z,25.46
2016-05-21T12:44:17.401Z,25.51
2016-05-21T12:45:17.404Z,25.44
2016-05-21T12:46:17.265Z,25.44
2016-05-21T12:47:17.409Z,25.4
2016-05-21T12:48:17.270Z,25.33
2016-05-21T12:49:17.429Z,25.34
2016-05-21T12:50:17.432Z,25.34
2016-05-21T12:51:17.435Z,25.36
2016-05-21T12:52:17.438Z,25.37
2016-05-21T12:53:17.440Z,25.4
2016-05-21T12:54:17.459Z,25.36
2016-05-21T12:55:17.445Z,25.4
2016-05-21T12:56:17.433Z,25.43
2016-05-21T12:57:17.498Z,25.44
2016-05-21T12:58:17.453Z,25.46
2016-05-21T12:59:17.456Z,25.46
2016-05-21T13:00:17.319Z,25.41
2016-05-21T13:01:17.462Z,25.56
2016-05-21T13:02:17.464Z,25.56
2016-05-21T13:03:17.467Z,25.49